createdAt,value
2022-11-17T00:02:07.183Z,8.95
2022-11-17T00:05:13.151Z,8.96
2022-11-17T00:08:19.576Z,9.23
2022-11-17T00:11:26.335Z,9.09
2022-11-17T00:14:43.601Z,9.02
2022-11-17T00:17:50.363Z,8.99
2022-11-17T00:21:14.543Z,9.11
2022-11-17T00:24:20.634Z,9.12
2022-11-17T00:27:26.446Z,9.07
2022-11-17T00:30:49.523Z,9.18
2022-11-17T00:34:13.990Z,9.17
2022-11-17T00:37:20.215Z,9.37
2022-11-17T00:40:26.678Z,9.30
2022-11-17T00:43:33.927Z,9.37
2022-11-17T00:46:39.355Z,9.39
2022-11-17T00:49:45.133Z,9.42
2022-11-17T00:52:50.081Z,9.56
2022-11-17T00:55:55.219Z,9.41
2022-11-17T00:59:00.816Z,9.39
2022-11-17T01:02:07.354Z,9.41
2022-11-17T01:05:12.666Z,9.51
2022-11-17T01:08:19.450Z,9.44
2022-11-17T01:11:29.949Z,9.33
2022-11-17T01:14:42.854Z,9.32
2022-11-17T01:17:49.264Z,9.37
2022-11-17T01:20:55.996Z,9.33
2022-11-17T08:39:35.603Z,9.12
2022-11-17T08:43:08.825Z,9.04
2022-11-17T08:46:14.138Z,9.21
2022-11-17T08:49:20.725Z,9.23
2022-11-17T08:52:26.225Z,9.31
2022-11-17T08:55:36.809Z,9.18
2022-11-17T08:58:40.475Z,9.17
2022-11-17T09:01:47.280Z,9.24
2022-11-17T09:04:54.035Z,9.09
2022-11-17T09:08:22.418Z,9.16
2022-11-17T09:11:08.347Z,9.41
2022-11-17T09:14:15.029Z,9.62
2022-11-17T09:17:21.309Z,9.77
2022-11-17T09:20:27.677Z,9.96
2022-11-17T09:23:33.360Z,10.04
2022-11-17T09:26:40.057Z,10.32
2022-11-17T09:29:46.438Z,10.30
2022-11-17T09:32:53.944Z,10.52
2022-11-17T09:35:59.781Z,10.56
2022-11-17T09:39:05.798Z,10.14
2022-11-17T09:42:11.352Z,10.02
2022-11-17T09:45:21.104Z,10.19
2022-11-17T09:48:41.055Z,10.20
2022-11-17T09:51:39.857Z,10.35
2022-11-17T09:54:58.391Z,10.63
2022-11-17T09:58:07.436Z,10.51
2022-11-17T10:01:12.855Z,10.58
2022-11-17T10:04:25.848Z,10.48
2022-11-17T10:07:31.941Z,10.37
2022-11-17T10:10:55.428Z,10.23
2022-11-17T10:14:03.572Z,10.17
2022-11-17T10:17:13.192Z,10.15
2022-11-17T10:20:25.197Z,10.27
2022-11-17T10:23:32.902Z,9.98
2022-11-17T10:26:38.840Z,10.06
2022-11-17T10:29:45.725Z,10.10
2022-11-17T13:50:44.448Z,9.44
2022-11-17T13:53:51.009Z,9.68
2022-11-17T13:57:04.615Z,8.81
2022-11-17T14:00:10.482Z,8.45
2022-11-17T14:03:19.728Z,8.67
2022-11-17T14:06:27.712Z,8.78
2022-11-17T14:09:33.219Z,8.70
2022-11-17T14:12:38.800Z,8.08
2022-11-17T14:15:53.271Z,8.76
2022-11-17T14:18:54.002Z,8.41
2022-11-17T14:22:24.740Z,7.89
2022-11-17T14:25:27.941Z,7.52
2022-11-17T14:28:35.637Z,7.63
2022-11-17T14:31:41.578Z,7.93
2022-11-17T14:34:47.323Z,8.02
2022-11-17T14:37:53.309Z,7.94
2022-11-17T14:41:00.675Z,7.48
2022-11-17T14:44:05.553Z,7.12
2022-11-17T14:47:12.055Z,7.46
2022-11-17T14:50:17.939Z,7.59
2022-11-17T14:53:23.697Z,7.82
2022-11-17T14:56:33.334Z,7.60
2022-11-17T14:59:42.625Z,7.85
2022-11-17T15:02:50.401Z,7.83
2022-11-17T15:06:00.531Z,8.03
2022-11-17T15:09:13.622Z,7.56
2022-11-17T15:12:18.747Z,7.74
2022-11-17T15:15:24.890Z,7.44
2022-11-17T15:18:30.823Z,7.53
2022-11-17T15:21:36.991Z,7.23
2022-11-17T15:24:42.178Z,7.41
2022-11-17T15:27:47.416Z,7.32
2022-11-17T15:30:53.728Z,7.34
2022-11-17T15:34:00.425Z,7.58
2022-11-17T15:37:06.329Z,7.68
2022-11-17T15:40:18.000Z,7.82
2022-11-17T15:43:20.798Z,7.96
2022-11-17T15:46:29.279Z,7.80
2022-11-17T15:49:34.239Z,7.80
2022-11-17T15:53:03.002Z,7.72
2022-11-17T15:55:41.990Z,7.93
2022-11-17T15:58:47.851Z,8.01
2022-11-17T16:01:53.667Z,7.88
2022-11-17T16:04:59.215Z,7.77
2022-11-17T16:08:05.745Z,7.89
2022-11-17T16:11:10.826Z,7.99
2022-11-17T16:14:09.408Z,8.10
2022-11-17T16:17:15.576Z,7.94
2022-11-17T16:20:24.879Z,8.02
2022-11-17T16:23:31.453Z,7.92
2022-11-17T16:26:39.064Z,7.97
2022-11-17T16:29:44.380Z,7.76
2022-11-17T16:32:49.969Z,7.75
2022-11-17T16:35:56.825Z,7.19
2022-11-17T16:39:10.582Z,7.05
2022-11-17T16:42:17.085Z,6.74
2022-11-17T16:45:22.651Z,6.66
2022-11-17T16:48:28.636Z,6.75
2022-11-17T16:51:33.410Z,6.85
2022-11-17T16:54:39.382Z,6.99
2022-11-17T16:57:45.574Z,6.98
2022-11-17T17:00:50.997Z,6.96
2022-11-17T17:03:58.537Z,6.94
2022-11-17T17:07:04.743Z,6.86
2022-11-17T17:10:10.816Z,6.73
2022-11-17T17:13:16.371Z,6.83
2022-11-17T17:16:23.679Z,6.85
2022-11-17T17:19:30.591Z,6.96
2022-11-17T17:22:35.860Z,6.74
2022-11-17T17:25:41.290Z,6.65
2022-11-17T17:28:50.936Z,6.57
2022-11-17T17:31:56.759Z,6.52
2022-11-17T17:35:03.147Z,6.58
2022-11-17T17:38:08.650Z,6.25
2022-11-17T17:41:29.385Z,6.60
2022-11-17T17:44:35.447Z,6.31
2022-11-17T17:47:41.913Z,6.23
2022-11-17T17:50:46.689Z,6.71
2022-11-17T17:53:52.397Z,6.80
2022-11-17T17:56:59.801Z,6.87
2022-11-17T18:00:06.253Z,6.57
2022-11-17T18:03:11.779Z,6.34
2022-11-17T18:06:18.042Z,6.33
2022-11-17T18:09:26.860Z,6.53
2022-11-17T18:12:33.657Z,6.25
2022-11-17T18:15:38.732Z,6.13
2022-11-17T18:18:44.294Z,6.06
2022-11-17T18:21:50.950Z,5.99
2022-11-17T18:24:49.438Z,6.14
2022-11-17T18:27:41.998Z,6.39
2022-11-17T18:30:46.517Z,6.09
2022-11-17T18:33:53.769Z,5.94
2022-11-17T18:37:00.443Z,5.83
2022-11-17T18:40:06.308Z,5.96
2022-11-17T18:43:13.940Z,5.97
2022-11-17T18:46:24.511Z,5.98
2022-11-17T18:49:30.119Z,6.14
2022-11-17T18:52:36.737Z,6.28
2022-11-17T18:55:42.376Z,6.24
2022-11-17T18:58:48.658Z,6.12
2022-11-17T19:01:56.179Z,6.15
2022-11-17T19:05:03.738Z,6.12
2022-11-17T19:08:09.279Z,5.99
2022-11-17T19:11:15.785Z,5.86
2022-11-17T19:14:21.811Z,5.93
2022-11-17T22:18:53.256Z,2.95
2022-11-17T22:21:58.845Z,2.62
2022-11-17T22:25:29.954Z,2.55
2022-11-17T22:28:12.862Z,2.55
2022-11-17T22:31:23.774Z,2.82
2022-11-17T22:34:28.169Z,2.72
2022-11-17T22:37:34.285Z,2.55
2022-11-17T22:40:41.127Z,2.54
2022-11-17T22:43:47.495Z,2.57
2022-11-17T22:46:53.071Z,2.66
2022-11-17T22:49:52.988Z,3.07
2022-11-17T22:53:00.153Z,2.95
2022-11-17T22:56:05.625Z,2.85
2022-11-17T22:59:11.286Z,2.95
2022-11-17T23:02:17.017Z,3.19
2022-11-17T23:05:21.844Z,3.07
2022-11-17T23:08:28.275Z,3.30
2022-11-17T23:11:37.764Z,3.41
2022-11-17T23:14:40.071Z,3.47
2022-11-17T23:17:46.659Z,2.62
2022-11-17T23:20:51.780Z,3.06
2022-11-17T23:23:57.595Z,3.09
2022-11-17T23:27:03.206Z,2.92
2022-11-17T23:30:09.829Z,3.17
2022-11-17T23:33:15.181Z,2.98
2022-11-17T23:36:43.922Z,2.85
2022-11-17T23:39:50.736Z,3.03
2022-11-17T23:42:58.297Z,2.83
2022-11-17T23:45:58.147Z,2.80
2022-11-17T23:49:04.715Z,2.92
2022-11-17T23:52:11.337Z,3.48
2022-11-17T23:55:17.107Z,3.29
2022-11-17T23:58:23.653Z,3.29
